Time;durP1;ratioP1;P1;durP2;ratioP2;P2;SDS_P1;SDS_P2;PMS_P1;PMS_P2;Temp;Humidity;BMP_temperature;BMP_pressure;BME280_temperature;BME280_humidity;BME280_pressure;Samples;Min_cycle;Max_cycle;Signal;HPM_P1;HPM_P2
2022/09/24 00:01:53;;;;;;;;;;;24.20;46.80;;;;;;1569808;75;661;-60
2022/09/24 00:03:56;;;;;;;;;;;24.30;47.00;;;;;;1557273;75;1163;-59
2022/09/24 00:05:59;;;;;;;;;;;24.30;47.10;;;;;;1552074;75;1161;-60
2022/09/24 00:08:01;;;;;;;;;;;24.20;47.00;;;;;;1547116;75;1925;-60
2022/09/24 00:10:03;;;;;;;;;;;24.20;46.90;;;;;;1554076;75;802;-57
2022/09/24 00:12:05;;;;;;;;;;;24.20;47.00;;;;;;1565086;75;648;-58
2022/09/24 00:14:07;;;;;;;;;;;24.30;47.10;;;;;;1564860;75;1117;-58
2022/09/24 00:16:10;;;;;;;;;;;24.20;47.00;;;;;;1566644;75;697;-57
2022/09/24 00:18:13;;;;;;;;;;;24.20;47.10;;;;;;1565122;75;818;-58
2022/09/24 00:20:15;;;;;;;;;;;24.20;47.00;;;;;;1568504;74;693;-58
2022/09/24 00:22:16;;;;;;;;;;;24.20;47.10;;;;;;1573742;75;693;-58
2022/09/24 00:26:50;;;;;;;;;;;24.30;47.30;;;;;;1569577;75;1607;-59
2022/09/24 00:28:52;;;;;;;;;;;24.20;47.20;;;;;;1571063;75;1922;-58
2022/09/24 00:30:56;;;;;;;;;;;24.20;47.20;;;;;;1559346;75;697;-59
2022/09/24 00:32:57;;;;;;;;;;;24.20;47.30;;;;;;1571387;75;1730;-58
2022/09/24 00:34:59;;;;;;;;;;;24.20;47.30;;;;;;1577259;75;1160;-60
2022/09/24 00:37:01;;;;;;;;;;;24.20;47.30;;;;;;1557508;75;830;-59
2022/09/24 00:39:03;;;;;;;;;;;24.20;47.30;;;;;;1566416;75;806;-58
2022/09/24 00:41:05;;;;;;;;;;;24.20;47.30;;;;;;1567718;75;672;-60
2022/09/24 00:43:25;;;;;;;;;;;24.20;47.30;;;;;;1574378;75;684;-58
2022/09/24 00:45:27;;;;;;;;;;;24.20;47.30;;;;;;1549005;75;1137;-57
2022/09/24 00:47:41;;;;;;;;;;;24.20;47.40;;;;;;1559381;75;1969;-60
2022/09/24 00:49:43;;;;;;;;;;;24.20;47.40;;;;;;1581366;75;717;-62
2022/09/24 00:51:46;;;;;;;;;;;24.20;47.30;;;;;;1571968;75;687;-58
2022/09/24 00:53:49;;;;;;;;;;;24.20;47.30;;;;;;1557091;75;2063;-60
2022/09/24 00:55:52;;;;;;;;;;;24.20;47.30;;;;;;1563584;75;1071;-60
2022/09/24 00:57:56;;;;;;;;;;;24.20;47.30;;;;;;1571441;75;699;-59
2022/09/24 00:59:58;;;;;;;;;;;24.20;47.30;;;;;;1568819;75;1815;-57
2022/09/24 01:02:02;;;;;;;;;;;24.20;47.50;;;;;;1555402;75;1524;-59
2022/09/24 01:04:03;;;;;;;;;;;24.10;47.50;;;;;;1560852;75;1610;-59
2022/09/24 01:06:05;;;;;;;;;;;24.10;47.50;;;;;;1569105;75;706;-57
2022/09/24 01:08:09;;;;;;;;;;;24.10;47.60;;;;;;1562404;75;1922;-59
2022/09/24 01:10:11;;;;;;;;;;;24.10;47.60;;;;;;1565969;75;777;-60
2022/09/24 01:12:29;;;;;;;;;;;24.10;47.60;;;;;;1558301;75;698;-59
2022/09/24 01:14:50;;;;;;;;;;;24.10;47.60;;;;;;1570780;75;1936;-57
2022/09/24 01:17:10;;;;;;;;;;;24.10;47.70;;;;;;1563596;75;823;-58
2022/09/24 01:19:26;;;;;;;;;;;24.10;47.70;;;;;;1560509;75;748;-60
2022/09/24 01:21:49;;;;;;;;;;;24.10;47.80;;;;;;1569544;75;817;-58
2022/09/24 01:23:52;;;;;;;;;;;24.00;47.60;;;;;;1563858;75;1718;-58
2022/09/24 01:26:18;;;;;;;;;;;24.10;47.80;;;;;;1562860;75;1115;-58
2022/09/24 01:28:26;;;;;;;;;;;24.10;47.80;;;;;;1573890;75;1919;-60
2022/09/24 01:30:30;;;;;;;;;;;24.00;47.60;;;;;;1566491;75;1746;-59
2022/09/24 01:32:37;;;;;;;;;;;24.00;47.70;;;;;;1568523;75;1876;-60
2022/09/24 01:34:43;;;;;;;;;;;24.00;47.60;;;;;;1561009;75;1151;-60
2022/09/24 01:36:45;;;;;;;;;;;24.20;47.80;;;;;;1564582;75;647;-59
2022/09/24 01:38:47;;;;;;;;;;;24.00;47.70;;;;;;1561811;75;695;-59
2022/09/24 01:40:50;;;;;;;;;;;24.10;47.80;;;;;;1568016;75;686;-58
2022/09/24 01:42:52;;;;;;;;;;;24.00;47.80;;;;;;1571056;75;797;-59
2022/09/24 01:44:54;;;;;;;;;;;24.00;47.80;;;;;;1558703;75;1158;-58
2022/09/24 01:46:55;;;;;;;;;;;24.00;47.80;;;;;;1568826;75;710;-57
2022/09/24 01:48:58;;;;;;;;;;;24.00;47.80;;;;;;1573232;75;1939;-58
2022/09/24 01:51:10;;;;;;;;;;;24.00;47.90;;;;;;1560000;75;712;-59
2022/09/24 01:53:14;;;;;;;;;;;24.00;47.90;;;;;;1563084;75;751;-57
2022/09/24 01:55:17;;;;;;;;;;;24.00;48.00;;;;;;1562700;75;1675;-59
2022/09/24 01:57:21;;;;;;;;;;;24.00;48.00;;;;;;1564342;75;718;-57
2022/09/24 01:59:26;;;;;;;;;;;24.00;48.00;;;;;;1558957;75;1689;-58
2022/09/24 02:01:32;;;;;;;;;;;24.00;48.00;;;;;;1565227;75;1069;-58
2022/09/24 02:03:35;;;;;;;;;;;24.00;48.10;;;;;;1559033;75;669;-58
2022/09/24 02:05:41;;;;;;;;;;;24.00;48.10;;;;;;1568647;75;1079;-60
2022/09/24 02:07:53;;;;;;;;;;;24.00;48.10;;;;;;1563841;75;1939;-59
2022/09/24 02:09:55;;;;;;;;;;;24.00;48.10;;;;;;1566770;75;675;-58
2022/09/24 02:11:58;;;;;;;;;;;24.00;48.10;;;;;;1571394;75;811;-59
2022/09/24 02:14:03;;;;;;;;;;;24.00;48.10;;;;;;1572208;75;1169;-58
2022/09/24 02:16:04;;;;;;;;;;;24.00;48.10;;;;;;1564074;75;2076;-59
2022/09/24 02:18:07;;;;;;;;;;;24.00;48.10;;;;;;1563178;75;755;-58
2022/09/24 02:20:11;;;;;;;;;;;24.00;48.20;;;;;;1563847;75;770;-60
2022/09/24 02:22:13;;;;;;;;;;;24.00;48.20;;;;;;1566447;75;885;-57
2022/09/24 02:24:22;;;;;;;;;;;24.00;48.10;;;;;;1565610;75;1151;-58
2022/09/24 02:26:24;;;;;;;;;;;24.00;48.10;;;;;;1570112;75;1771;-60
2022/09/24 02:28:26;;;;;;;;;;;24.00;48.10;;;;;;1565039;75;1931;-59
2022/09/24 02:30:28;;;;;;;;;;;24.10;48.30;;;;;;1569507;75;679;-57
2022/09/24 02:32:30;;;;;;;;;;;24.10;48.10;;;;;;1570575;75;770;-59
2022/09/24 02:34:33;;;;;;;;;;;24.20;48.00;;;;;;1569126;75;1141;-59
2022/09/24 02:36:35;;;;;;;;;;;24.30;48.00;;;;;;1561584;75;830;-57
2022/09/24 02:38:38;;;;;;;;;;;24.40;47.80;;;;;;1563993;75;736;-60
2022/09/24 02:40:40;;;;;;;;;;;24.40;47.70;;;;;;1561178;75;689;-58
2022/09/24 02:42:42;;;;;;;;;;;24.40;47.80;;;;;;1554291;75;646;-57
2022/09/24 02:44:44;;;;;;;;;;;24.30;48.00;;;;;;1562121;75;1147;-58
2022/09/24 02:46:46;;;;;;;;;;;24.30;48.40;;;;;;1559974;75;689;-60
2022/09/24 02:48:48;;;;;;;;;;;24.10;48.60;;;;;;1557530;75;1923;-60
2022/09/24 02:50:50;;;;;;;;;;;24.10;48.80;;;;;;1565385;75;684;-60
2022/09/24 02:52:51;;;;;;;;;;;24.00;48.90;;;;;;1568996;75;769;-60
2022/09/24 02:54:53;;;;;;;;;;;24.10;49.20;;;;;;1561280;75;1547;-58
2022/09/24 02:56:55;;;;;;;;;;;24.00;49.20;;;;;;1560741;75;646;-57
2022/09/24 02:58:57;;;;;;;;;;;24.00;49.30;;;;;;1566322;75;735;-58
2022/09/24 03:00:59;;;;;;;;;;;23.90;49.40;;;;;;1569293;75;680;-58
2022/09/24 03:03:01;;;;;;;;;;;23.90;49.50;;;;;;1566872;75;730;-60
2022/09/24 03:05:03;;;;;;;;;;;24.00;49.60;;;;;;1570555;75;1124;-60
2022/09/24 03:07:05;;;;;;;;;;;24.00;49.60;;;;;;1571206;75;753;-60
2022/09/24 03:09:07;;;;;;;;;;;24.00;49.60;;;;;;1574227;75;1939;-60
2022/09/24 03:11:09;;;;;;;;;;;24.00;49.70;;;;;;1556154;75;789;-60
2022/09/24 03:13:11;;;;;;;;;;;24.00;49.60;;;;;;1564832;75;738;-59
2022/09/24 03:15:13;;;;;;;;;;;24.00;49.60;;;;;;1562436;75;1168;-59
2022/09/24 03:17:15;;;;;;;;;;;24.00;49.50;;;;;;1556092;74;690;-60
2022/09/24 03:19:17;;;;;;;;;;;24.00;49.60;;;;;;1563630;75;701;-59
2022/09/24 03:21:19;;;;;;;;;;;24.00;49.70;;;;;;1568114;75;745;-59
2022/09/24 03:23:21;;;;;;;;;;;24.00;49.60;;;;;;1559625;75;1613;-57
2022/09/24 03:25:24;;;;;;;;;;;24.00;49.60;;;;;;1560018;75;1104;-58
2022/09/24 03:27:25;;;;;;;;;;;24.00;49.50;;;;;;1566053;75;686;-57
2022/09/24 03:31:47;;;;;;;;;;;23.90;49.60;;;;;;1569465;75;1616;-59
2022/09/24 03:33:49;;;;;;;;;;;24.00;49.60;;;;;;1548397;75;697;-60
2022/09/24 03:35:52;;;;;;;;;;;24.00;49.60;;;;;;1539514;75;1059;-57
2022/09/24 03:37:54;;;;;;;;;;;23.90;49.50;;;;;;1542765;75;1739;-59
2022/09/24 03:39:56;;;;;;;;;;;24.00;49.60;;;;;;1568376;75;769;-59
2022/09/24 03:41:58;;;;;;;;;;;23.90;49.50;;;;;;1563935;75;795;-58
2022/09/24 03:44:00;;;;;;;;;;;23.90;49.50;;;;;;1560986;75;1161;-60
2022/09/24 03:46:03;;;;;;;;;;;24.00;49.40;;;;;;1558249;75;725;-60
2022/09/24 03:48:05;;;;;;;;;;;23.90;49.50;;;;;;1551387;75;655;-60
2022/09/24 03:50:10;;;;;;;;;;;24.00;49.50;;;;;;1558603;75;1572;-60
2022/09/24 03:52:11;;;;;;;;;;;24.00;49.60;;;;;;1564000;75;1648;-60
2022/09/24 03:54:13;;;;;;;;;;;23.90;49.60;;;;;;1560146;75;1137;-59
2022/09/24 03:56:15;;;;;;;;;;;24.00;49.70;;;;;;1551636;75;823;-59
2022/09/24 03:58:17;;;;;;;;;;;23.90;49.70;;;;;;1560355;75;733;-59
2022/09/24 04:00:19;;;;;;;;;;;24.00;49.60;;;;;;1549688;75;700;-58
2022/09/24 04:02:21;;;;;;;;;;;24.00;49.60;;;;;;1558528;75;719;-58
2022/09/24 04:04:23;;;;;;;;;;;24.00;49.60;;;;;;1560632;75;1363;-60
2022/09/24 04:06:25;;;;;;;;;;;24.00;49.50;;;;;;1546070;75;705;-59
2022/09/24 04:08:27;;;;;;;;;;;24.10;49.50;;;;;;1568881;75;1904;-59
2022/09/24 04:10:29;;;;;;;;;;;24.20;49.00;;;;;;1562625;75;751;-59
2022/09/24 04:12:31;;;;;;;;;;;24.20;48.90;;;;;;1563685;75;681;-57
2022/09/24 04:14:33;;;;;;;;;;;24.30;48.80;;;;;;1557680;75;1181;-57
2022/09/24 04:16:35;;;;;;;;;;;24.40;48.60;;;;;;1552316;75;693;-58
2022/09/24 04:18:38;;;;;;;;;;;24.50;48.40;;;;;;1559048;75;1510;-59
2022/09/24 04:20:40;;;;;;;;;;;24.50;48.10;;;;;;1554874;75;712;-58
2022/09/24 04:22:42;;;;;;;;;;;24.70;47.70;;;;;;1556968;75;715;-59
2022/09/24 04:24:44;;;;;;;;;;;24.80;47.50;;;;;;1559322;75;1126;-57
2022/09/24 04:26:46;;;;;;;;;;;24.70;47.50;;;;;;1556304;75;703;-59
2022/09/24 04:28:49;;;;;;;;;;;24.70;47.70;;;;;;1554503;75;1922;-59
2022/09/24 04:30:51;;;;;;;;;;;24.60;47.90;;;;;;1566455;75;655;-61
2022/09/24 04:32:53;;;;;;;;;;;24.60;47.70;;;;;;1569748;75;1546;-60
2022/09/24 04:34:54;;;;;;;;;;;24.70;47.40;;;;;;1558836;75;1134;-59
2022/09/24 04:36:56;;;;;;;;;;;24.80;47.10;;;;;;1544656;75;703;-59
2022/09/24 04:38:58;;;;;;;;;;;24.90;47.10;;;;;;1559667;75;776;-61
2022/09/24 04:41:09;;;;;;;;;;;24.80;47.10;;;;;;1557752;75;729;-59
2022/09/24 04:43:11;;;;;;;;;;;24.80;46.90;;;;;;1548999;75;643;-62
2022/09/24 04:45:16;;;;;;;;;;;24.90;46.80;;;;;;1544021;75;1141;-61
2022/09/24 04:47:17;;;;;;;;;;;25.00;46.80;;;;;;1561900;75;1567;-61
2022/09/24 04:49:19;;;;;;;;;;;24.90;46.70;;;;;;1559322;75;1948;-59
2022/09/24 04:51:21;;;;;;;;;;;24.90;46.50;;;;;;1564201;75;781;-59
2022/09/24 04:53:23;;;;;;;;;;;24.90;46.60;;;;;;1562748;75;679;-60
2022/09/24 04:55:26;;;;;;;;;;;24.90;46.70;;;;;;1564999;75;1102;-60
2022/09/24 04:57:28;;;;;;;;;;;24.80;46.70;;;;;;1556041;75;706;-62
2022/09/24 04:59:30;;;;;;;;;;;24.80;46.80;;;;;;1550035;75;663;-60
2022/09/24 05:01:31;;;;;;;;;;;24.80;46.80;;;;;;1553617;75;1555;-59
2022/09/24 05:03:34;;;;;;;;;;;24.90;46.80;;;;;;1566342;75;669;-60
2022/09/24 05:05:36;;;;;;;;;;;24.90;46.70;;;;;;1573363;75;1117;-60
2022/09/24 05:07:38;;;;;;;;;;;24.90;46.70;;;;;;1551041;75;679;-59
2022/09/24 05:09:40;;;;;;;;;;;24.90;46.80;;;;;;1549325;75;1915;-60
2022/09/24 05:11:41;;;;;;;;;;;24.90;46.90;;;;;;1555158;75;696;-59
2022/09/24 05:13:44;;;;;;;;;;;24.90;47.10;;;;;;1555526;75;760;-59
2022/09/24 05:15:45;;;;;;;;;;;24.90;47.10;;;;;;1557788;75;1618;-59
2022/09/24 05:17:47;;;;;;;;;;;24.90;47.10;;;;;;1551129;75;695;-59
2022/09/24 05:19:49;;;;;;;;;;;24.90;47.00;;;;;;1549327;75;759;-60
2022/09/24 05:21:51;;;;;;;;;;;24.80;46.90;;;;;;1553581;75;682;-60
2022/09/24 05:23:53;;;;;;;;;;;24.90;47.10;;;;;;1555362;75;758;-60
2022/09/24 05:28:15;;;;;;;;;;;24.90;47.20;;;;;;1548878;75;896;-61
2022/09/24 05:30:17;;;;;;;;;;;24.80;47.20;;;;;;1554001;75;1943;-59
2022/09/24 05:32:19;;;;;;;;;;;24.80;47.10;;;;;;1559478;75;687;-60
2022/09/24 05:34:21;;;;;;;;;;;24.80;47.20;;;;;;1563681;71;231173;-77
2022/09/24 05:36:25;;;;;;;;;;;24.70;47.50;;;;;;1580283;74;761;-74
2022/09/24 05:38:28;;;;;;;;;;;24.70;47.80;;;;;;1582471;74;1649;-71
2022/09/24 05:40:48;;;;;;;;;;;24.60;47.90;;;;;;1578810;74;647;-72
2022/09/24 05:42:50;;;;;;;;;;;24.70;47.80;;;;;;1574536;74;1364;-73
2022/09/24 05:44:52;;;;;;;;;;;24.80;47.70;;;;;;1573907;74;1173;-71
2022/09/24 05:46:54;;;;;;;;;;;24.80;47.60;;;;;;1575750;74;675;-73
2022/09/24 05:48:56;;;;;;;;;;;24.80;47.80;;;;;;1575601;74;1947;-73
2022/09/24 05:51:00;;;;;;;;;;;24.70;48.10;;;;;;1580823;74;805;-72
2022/09/24 05:53:02;;;;;;;;;;;24.70;48.50;;;;;;1574926;74;748;-71
2022/09/24 05:55:04;;;;;;;;;;;24.70;48.50;;;;;;1569184;74;1111;-69
2022/09/24 05:57:06;;;;;;;;;;;24.60;48.30;;;;;;1571621;74;1383;-70
2022/09/24 05:59:08;;;;;;;;;;;24.60;48.30;;;;;;1583123;74;623;-69
2022/09/24 06:01:10;;;;;;;;;;;24.70;48.00;;;;;;1563729;74;740;-69
2022/09/24 06:03:12;;;;;;;;;;;24.80;47.70;;;;;;1564462;74;650;-69
2022/09/24 06:05:14;;;;;;;;;;;24.90;47.50;;;;;;1571927;74;1211;-69
2022/09/24 06:07:16;;;;;;;;;;;24.90;47.40;;;;;;1566422;74;733;-69
2022/09/24 06:09:18;;;;;;;;;;;24.90;47.30;;;;;;1576400;74;1955;-70
2022/09/24 06:11:21;;;;;;;;;;;24.90;47.20;;;;;;1575293;74;1565;-69
2022/09/24 06:13:23;;;;;;;;;;;24.90;47.20;;;;;;1574248;74;727;-69
2022/09/24 06:15:26;;;;;;;;;;;24.80;47.30;;;;;;1574312;74;1156;-69
2022/09/24 06:17:27;;;;;;;;;;;24.80;47.30;;;;;;1577595;74;785;-69
2022/09/24 06:19:29;;;;;;;;;;;24.80;47.30;;;;;;1574061;74;709;-70
2022/09/24 06:21:31;;;;;;;;;;;24.70;47.70;;;;;;1584102;74;667;-68
2022/09/24 06:23:35;;;;;;;;;;;24.50;48.20;;;;;;1580948;74;665;-71
2022/09/24 06:25:37;;;;;;;;;;;24.50;48.70;;;;;;1579781;74;1768;-70
2022/09/24 06:27:38;;;;;;;;;;;24.40;49.10;;;;;;1583870;74;730;-70
2022/09/24 06:29:40;;;;;;;;;;;24.30;49.20;;;;;;1583644;74;1959;-70
2022/09/24 06:31:43;;;;;;;;;;;24.30;49.40;;;;;;1582117;74;699;-70
2022/09/24 06:33:45;;;;;;;;;;;24.40;49.60;;;;;;1571833;74;1131;-69
2022/09/24 06:35:47;;;;;;;;;;;24.40;49.60;;;;;;1577608;74;768;-70
2022/09/24 06:37:49;;;;;;;;;;;24.30;49.70;;;;;;1568010;74;687;-70
2022/09/24 06:39:51;;;;;;;;;;;24.30;49.80;;;;;;1554190;75;1587;-69
2022/09/24 06:41:53;;;;;;;;;;;24.40;49.60;;;;;;1591968;74;791;-70
2022/09/24 06:43:55;;;;;;;;;;;24.40;49.50;;;;;;1576585;74;1072;-69
2022/09/24 06:45:57;;;;;;;;;;;24.50;49.40;;;;;;1579020;74;685;-70
2022/09/24 06:47:59;;;;;;;;;;;24.50;49.40;;;;;;1578325;74;742;-70
2022/09/24 06:50:01;;;;;;;;;;;24.70;49.40;;;;;;1575329;74;1926;-70
2022/09/24 06:52:03;;;;;;;;;;;24.70;49.30;;;;;;1577241;74;809;-70
2022/09/24 06:54:05;;;;;;;;;;;24.60;49.20;;;;;;1578392;74;1258;-69
2022/09/24 06:56:07;;;;;;;;;;;24.70;49.40;;;;;;1581282;74;752;-70
2022/09/24 06:58:10;;;;;;;;;;;24.70;49.40;;;;;;1576293;74;766;-69
2022/09/24 07:00:12;;;;;;;;;;;24.70;49.20;;;;;;1583121;74;735;-72
2022/09/24 07:02:14;;;;;;;;;;;24.60;49.20;;;;;;1583550;74;713;-70
2022/09/24 07:04:16;;;;;;;;;;;24.70;49.20;;;;;;1577854;74;1137;-71
2022/09/24 07:06:18;;;;;;;;;;;24.80;49.00;;;;;;1570129;74;681;-73
2022/09/24 07:08:20;;;;;;;;;;;24.90;48.80;;;;;;1578756;74;1552;-70
2022/09/24 07:10:24;;;;;;;;;;;24.80;48.60;;;;;;1578140;74;1943;-71
2022/09/24 07:12:26;;;;;;;;;;;24.90;48.50;;;;;;1576712;74;655;-70
2022/09/24 07:14:27;;;;;;;;;;;24.90;48.30;;;;;;1581443;74;1154;-71
2022/09/24 07:16:29;;;;;;;;;;;25.00;48.20;;;;;;1570358;74;668;-71
2022/09/24 07:18:31;;;;;;;;;;;25.00;48.10;;;;;;1580699;74;752;-71
2022/09/24 07:20:35;;;;;;;;;;;25.00;48.10;;;;;;1583908;74;690;-70
2022/09/24 07:22:39;;;;;;;;;;;25.00;48.10;;;;;;1579251;74;1692;-71
2022/09/24 07:24:41;;;;;;;;;;;25.00;48.10;;;;;;1578257;74;1145;-70
2022/09/24 07:26:43;;;;;;;;;;;25.00;48.10;;;;;;1580219;74;706;-70
2022/09/24 07:28:44;;;;;;;;;;;25.00;47.90;;;;;;1579368;74;746;-70
2022/09/24 07:30:46;;;;;;;;;;;25.10;47.90;;;;;;1574274;74;1923;-71
2022/09/24 07:32:50;;;;;;;;;;;25.00;47.90;;;;;;1576803;74;751;-70
2022/09/24 07:34:53;;;;;;;;;;;25.00;47.90;;;;;;1591233;74;2247;-70
2022/09/24 07:36:55;;;;;;;;;;;25.00;47.90;;;;;;1579644;74;1590;-71
2022/09/24 07:38:57;;;;;;;;;;;25.00;47.90;;;;;;1578469;74;762;-72
2022/09/24 07:40:59;;;;;;;;;;;25.00;47.80;;;;;;1579118;74;634;-71
2022/09/24 07:43:01;;;;;;;;;;;25.10;47.80;;;;;;1576721;74;784;-72
2022/09/24 07:45:03;;;;;;;;;;;25.00;47.80;;;;;;1580266;73;1141;-70
2022/09/24 07:47:05;;;;;;;;;;;25.00;47.80;;;;;;1579226;74;667;-70
2022/09/24 07:49:07;;;;;;;;;;;25.00;47.70;;;;;;1578203;74;1579;-69
2022/09/24 07:51:09;;;;;;;;;;;25.00;47.70;;;;;;1579341;74;1930;-71
2022/09/24 07:53:11;;;;;;;;;;;25.00;47.60;;;;;;1576874;74;696;-71
2022/09/24 07:55:13;;;;;;;;;;;25.00;47.70;;;;;;1575343;74;1138;-71
2022/09/24 07:57:15;;;;;;;;;;;25.00;47.70;;;;;;1579989;74;781;-71
2022/09/24 07:59:19;;;;;;;;;;;25.00;47.80;;;;;;1578043;74;708;-70
2022/09/24 08:01:20;;;;;;;;;;;25.00;47.80;;;;;;1576734;74;691;-71
2022/09/24 08:03:22;;;;;;;;;;;24.90;47.70;;;;;;1578187;74;1426;-70
2022/09/24 08:05:24;;;;;;;;;;;25.00;47.80;;;;;;1571502;74;1162;-71
2022/09/24 08:07:26;;;;;;;;;;;25.00;47.80;;;;;;1577243;74;649;-71
2022/09/24 08:09:28;;;;;;;;;;;24.90;47.80;;;;;;1580040;74;714;-70
2022/09/24 08:11:30;;;;;;;;;;;24.90;47.80;;;;;;1579789;74;1926;-70
2022/09/24 08:13:33;;;;;;;;;;;24.90;47.80;;;;;;1578352;74;725;-70
2022/09/24 08:15:35;;;;;;;;;;;25.00;47.80;;;;;;1584019;74;1153;-70
2022/09/24 08:17:37;;;;;;;;;;;25.00;47.80;;;;;;1578973;74;1558;-70
2022/09/24 08:19:42;;;;;;;;;;;24.90;47.80;;;;;;1577917;74;750;-70
2022/09/24 08:21:43;;;;;;;;;;;24.90;47.70;;;;;;1582813;74;1669;-70
2022/09/24 08:23:44;;;;;;;;;;;24.90;47.80;;;;;;1578406;74;666;-70
2022/09/24 08:25:49;;;;;;;;;;;24.90;47.80;;;;;;1581421;74;732;-70
2022/09/24 08:27:51;;;;;;;;;;;24.90;47.80;;;;;;1578195;74;788;-70
2022/09/24 08:29:53;;;;;;;;;;;25.00;47.80;;;;;;1586539;74;1924;-70
2022/09/24 08:31:55;;;;;;;;;;;25.00;47.80;;;;;;1584484;74;1391;-70
2022/09/24 08:33:57;;;;;;;;;;;24.90;47.80;;;;;;1591820;74;1139;-71
2022/09/24 08:35:59;;;;;;;;;;;24.90;47.80;;;;;;1588321;74;794;-71
2022/09/24 08:38:02;;;;;;;;;;;24.90;47.80;;;;;;1577003;74;786;-70
2022/09/24 08:40:04;;;;;;;;;;;25.00;47.80;;;;;;1576458;74;758;-70
2022/09/24 08:42:06;;;;;;;;;;;25.00;47.80;;;;;;1571368;74;650;-70
2022/09/24 08:44:10;;;;;;;;;;;24.90;47.80;;;;;;1577502;74;1146;-70
2022/09/24 08:48:43;;;;;;;;;;;24.90;47.70;;;;;;1576241;74;1616;-70
2022/09/24 08:50:50;;;;;;;;;;;24.90;47.70;;;;;;1577326;74;1910;-72
2022/09/24 08:52:59;;;;;;;;;;;24.90;47.80;;;;;;1577739;74;728;-71
2022/09/24 08:55:03;;;;;;;;;;;24.90;47.70;;;;;;1578160;74;2012;-72
2022/09/24 08:57:05;;;;;;;;;;;24.90;47.60;;;;;;1575412;74;911;-72
2022/09/24 08:59:10;;;;;;;;;;;24.90;47.60;;;;;;1580196;74;751;-72
2022/09/24 09:01:13;;;;;;;;;;;24.90;47.60;;;;;;1574336;74;1599;-72
2022/09/24 09:03:33;;;;;;;;;;;24.90;47.60;;;;;;1576744;74;652;-72
2022/09/24 09:05:39;;;;;;;;;;;24.90;47.70;;;;;;1577241;74;1048;-72
2022/09/24 09:07:45;;;;;;;;;;;25.10;47.70;;;;;;1537920;74;1238;-72
2022/09/24 09:09:52;;;;;;;;;;;24.90;47.70;;;;;;1580539;74;685;-72
2022/09/24 09:11:59;;;;;;;;;;;24.90;47.60;;;;;;1582219;74;1944;-71
2022/09/24 09:14:02;;;;;;;;;;;24.90;47.60;;;;;;1579363;74;1802;-70
2022/09/24 09:16:05;;;;;;;;;;;24.90;47.60;;;;;;1577347;74;706;-72
2022/09/24 09:18:09;;;;;;;;;;;25.00;47.60;;;;;;1586986;74;654;-71
2022/09/24 09:20:12;;;;;;;;;;;25.00;47.50;;;;;;1575095;74;744;-70
2022/09/24 09:22:15;;;;;;;;;;;25.00;47.60;;;;;;1581999;74;568;-71
2022/09/24 09:24:17;;;;;;;;;;;24.90;47.60;;;;;;1582451;74;1200;-71
2022/09/24 09:26:20;;;;;;;;;;;24.90;47.60;;;;;;1582000;74;760;-71
2022/09/24 09:28:22;;;;;;;;;;;25.00;47.70;;;;;;1578508;74;1474;-71
2022/09/24 09:30:24;;;;;;;;;;;24.80;47.70;;;;;;1584405;74;1908;-72
2022/09/24 09:32:33;;;;;;;;;;;24.70;47.90;;;;;;1570937;74;738;-71
2022/09/24 09:34:52;;;;;;;;;;;24.70;48.10;;;;;;1577004;74;1138;-71
2022/09/24 09:37:07;;;;;;;;;;;24.60;48.20;;;;;;1587632;74;810;-72
2022/09/24 09:39:17;;;;;;;;;;;24.50;48.40;;;;;;1589333;74;621;-73
2022/09/24 09:41:20;;;;;;;;;;;24.50;48.50;;;;;;1581273;74;765;-72
2022/09/24 09:43:22;;;;;;;;;;;24.50;48.70;;;;;;1586160;74;1473;-72
2022/09/24 09:45:28;;;;;;;;;;;24.50;48.80;;;;;;1577419;74;1103;-72
2022/09/24 09:47:47;;;;;;;;;;;24.40;48.90;;;;;;1586120;74;723;-71
2022/09/24 09:49:49;;;;;;;;;;;24.40;48.90;;;;;;1585754;74;809;-71
2022/09/24 09:51:51;;;;;;;;;;;24.50;48.90;;;;;;1578888;74;1946;-69
2022/09/24 09:53:55;;;;;;;;;;;24.40;48.80;;;;;;1582423;74;1114;-71
2022/09/24 09:56:01;;;;;;;;;;;24.40;48.80;;;;;;1570207;74;1601;-71
2022/09/24 09:58:10;;;;;;;;;;;24.40;48.90;;;;;;1582302;74;1807;-72
2022/09/24 10:00:13;;;;;;;;;;;24.40;48.90;;;;;;1572753;74;658;-72
2022/09/24 10:02:20;;;;;;;;;;;24.50;48.90;;;;;;1569699;74;2089;-72
2022/09/24 10:04:23;;;;;;;;;;;24.50;48.60;;;;;;1576126;74;2020;-71
2022/09/24 10:06:26;;;;;;;;;;;24.60;48.40;;;;;;1584941;74;1734;-73
2022/09/24 10:08:28;;;;;;;;;;;24.60;48.20;;;;;;1590915;74;648;-72
2022/09/24 10:10:30;;;;;;;;;;;24.70;48.10;;;;;;1577284;74;1930;-73
2022/09/24 10:12:32;;;;;;;;;;;24.80;48.10;;;;;;1587777;74;708;-72
2022/09/24 10:14:33;;;;;;;;;;;24.80;47.90;;;;;;1587679;74;1134;-70
2022/09/24 10:16:37;;;;;;;;;;;24.80;48.00;;;;;;1580659;74;674;-70
2022/09/24 10:18:47;;;;;;;;;;;24.80;48.00;;;;;;1566862;74;756;-70
2022/09/24 10:20:48;;;;;;;;;;;24.80;47.80;;;;;;1573930;74;691;-73
2022/09/24 10:22:52;;;;;;;;;;;24.80;47.80;;;;;;1579113;74;570;-75
2022/09/24 10:24:54;;;;;;;;;;;24.80;48.10;;;;;;1574627;73;1765;-69
2022/09/24 10:26:56;;;;;;;;;;;24.60;48.40;;;;;;1590121;74;717;-70
2022/09/24 10:31:19;;;;;;;;;;;24.50;49.30;;;;;;1530503;75;1908;-71
2022/09/24 10:33:21;;;;;;;;;;;24.40;49.60;;;;;;1575673;74;694;-72
2022/09/24 10:35:24;;;;;;;;;;;24.40;50.00;;;;;;1583807;74;1127;-70
2022/09/24 10:37:26;;;;;;;;;;;24.30;50.30;;;;;;1571462;74;1746;-69
2022/09/24 10:39:28;;;;;;;;;;;24.30;51.00;;;;;;1602123;74;1598;-71
2022/09/24 10:41:30;;;;;;;;;;;24.30;51.30;;;;;;1583793;74;690;-71
2022/09/24 10:43:32;;;;;;;;;;;24.30;51.00;;;;;;1591442;74;679;-71
2022/09/24 10:45:36;;;;;;;;;;;24.30;50.60;;;;;;1573991;74;1150;-70
2022/09/24 10:47:57;;;;;;;;;;;24.50;50.00;;;;;;1579709;74;1829;-70
2022/09/24 10:50:01;;;;;;;;;;;24.70;49.40;;;;;;1576295;74;728;-70
2022/09/24 10:52:21;;;;;;;;;;;24.80;48.90;;;;;;1582816;74;1919;-69
2022/09/24 10:54:27;;;;;;;;;;;24.90;48.70;;;;;;1590279;73;1146;-72
2022/09/24 10:56:39;;;;;;;;;;;24.90;48.50;;;;;;1566064;74;807;-70
2022/09/24 10:58:59;;;;;;;;;;;24.90;48.40;;;;;;1573069;74;645;-69
2022/09/24 11:01:03;;;;;;;;;;;25.00;48.30;;;;;;1581117;74;679;-69
2022/09/24 11:03:23;;;;;;;;;;;25.00;48.20;;;;;;1568859;75;1791;-70
2022/09/24 11:05:26;;;;;;;;;;;25.00;48.10;;;;;;1590952;74;1114;-69
2022/09/24 11:07:33;;;;;;;;;;;25.00;48.10;;;;;;1580769;74;1940;-69
2022/09/24 11:09:36;;;;;;;;;;;25.00;48.10;;;;;;1571126;74;1862;-73
2022/09/24 11:11:55;;;;;;;;;;;25.00;48.10;;;;;;1577256;74;1949;-68
2022/09/24 11:13:59;;;;;;;;;;;24.90;48.60;;;;;;1579071;74;1165;-67
2022/09/24 11:16:19;;;;;;;;;;;24.70;48.90;;;;;;1572251;74;1751;-71
2022/09/24 11:18:39;;;;;;;;;;;24.60;49.00;;;;;;1583835;74;680;-71
2022/09/24 11:20:42;;;;;;;;;;;24.70;48.90;;;;;;1576618;74;1547;-71
2022/09/24 11:23:02;;;;;;;;;;;24.80;48.60;;;;;;1586978;74;1820;-70
2022/09/24 11:25:15;;;;;;;;;;;24.80;48.20;;;;;;1586548;73;1182;-68
2022/09/24 11:27:27;;;;;;;;;;;24.80;48.00;;;;;;1566045;74;709;-72
2022/09/24 11:29:43;;;;;;;;;;;24.80;48.20;;;;;;1566125;74;695;-71
2022/09/24 11:32:05;;;;;;;;;;;24.80;48.10;;;;;;1579770;74;1947;-70
2022/09/24 11:36:19;;;;;;;;;;;24.90;48.20;;;;;;1585592;74;634;-67
2022/09/24 11:38:22;;;;;;;;;;;24.90;48.10;;;;;;1563439;74;500;-69
2022/09/24 11:40:26;;;;;;;;;;;24.90;48.00;;;;;;1577395;74;1912;-68
2022/09/24 11:42:30;;;;;;;;;;;25.00;47.90;;;;;;1577104;74;1927;-68
2022/09/24 11:44:51;;;;;;;;;;;24.90;47.90;;;;;;1576138;74;1199;-68
2022/09/24 11:46:57;;;;;;;;;;;25.00;47.80;;;;;;1568906;75;908;-67
2022/09/24 11:49:12;;;;;;;;;;;24.90;47.80;;;;;;1576040;74;1959;-67
2022/09/24 11:51:16;;;;;;;;;;;25.00;47.80;;;;;;1577586;75;1935;-68
2022/09/24 11:53:36;;;;;;;;;;;24.90;47.80;;;;;;1577060;74;1131;-69
2022/09/24 11:55:43;;;;;;;;;;;24.90;47.90;;;;;;1571370;74;1138;-69
2022/09/24 11:57:49;;;;;;;;;;;24.90;47.90;;;;;;1574291;74;1833;-68
2022/09/24 12:00:05;;;;;;;;;;;24.90;48.00;;;;;;1567348;74;675;-66
2022/09/24 12:02:07;;;;;;;;;;;24.90;47.90;;;;;;1565189;75;1455;-68
2022/09/24 12:04:10;;;;;;;;;;;24.80;47.80;;;;;;1567641;74;1798;-67
2022/09/24 12:06:17;;;;;;;;;;;24.90;48.00;;;;;;1561946;74;717;-68
2022/09/24 12:08:20;;;;;;;;;;;24.80;47.90;;;;;;1562269;74;1173;-68
2022/09/24 12:10:24;;;;;;;;;;;24.90;48.00;;;;;;1568121;74;1735;-68
2022/09/24 12:12:27;;;;;;;;;;;24.80;47.90;;;;;;1570965;75;1926;-68
2022/09/24 12:14:30;;;;;;;;;;;24.80;48.00;;;;;;1576916;74;1179;-68
2022/09/24 12:16:33;;;;;;;;;;;24.80;48.00;;;;;;1571781;74;1525;-74
2022/09/24 12:18:43;;;;;;;;;;;24.90;47.90;;;;;;1558938;75;769;-72
2022/09/24 12:21:00;;;;;;;;;;;24.80;47.80;;;;;;1573194;75;798;-67
2022/09/24 12:23:06;;;;;;;;;;;24.80;48.00;;;;;;1571919;74;1868;-70
2022/09/24 12:25:11;;;;;;;;;;;24.70;48.10;;;;;;1575915;74;1995;-68
2022/09/24 12:27:13;;;;;;;;;;;24.70;48.20;;;;;;1572309;74;751;-65
2022/09/24 12:34:10;;;;;;;;;;;24.60;48.30;;;;;;1560910;74;668;-68
2022/09/24 12:36:13;;;;;;;;;;;24.80;48.40;;;;;;1571902;75;1058;-67
2022/09/24 12:38:19;;;;;;;;;;;24.80;48.10;;;;;;1578395;74;666;-67